sensor_id;sensor_type;location;lat;lon;timestamp;P1;durP1;ratioP1;P2;durP2;ratioP2
49384;SDS011;36795;45.028;38.968;2023-02-25T00:01:19;35.45;;;15.23;;
49384;SDS011;36795;45.028;38.968;2023-02-25T00:04:06;37.25;;;16.12;;
49384;SDS011;36795;45.028;38.968;2023-02-25T00:06:51;34.38;;;13.77;;
49384;SDS011;36795;45.028;38.968;2023-02-25T00:09:38;34.10;;;14.70;;
49384;SDS011;36795;45.028;38.968;2023-02-25T00:12:24;38.95;;;15.02;;
49384;SDS011;36795;45.028;38.968;2023-02-25T00:15:11;33.30;;;14.73;;
49384;SDS011;36795;45.028;38.968;2023-02-25T00:17:57;55.67;;;16.77;;
49384;SDS011;36795;45.028;38.968;2023-02-25T00:20:44;34.47;;;14.55;;
49384;SDS011;36795;45.028;38.968;2023-02-25T00:23:30;38.00;;;15.27;;
49384;SDS011;36795;45.028;38.968;2023-02-25T00:26:16;40.80;;;16.10;;
49384;SDS011;36795;45.028;38.968;2023-02-25T00:29:03;35.53;;;15.40;;
49384;SDS011;36795;45.028;38.968;2023-02-25T00:31:50;37.10;;;15.25;;
49384;SDS011;36795;45.028;38.968;2023-02-25T00:34:36;35.47;;;14.50;;
49384;SDS011;36795;45.028;38.968;2023-02-25T00:37:22;35.13;;;15.13;;
49384;SDS011;36795;45.028;38.968;2023-02-25T00:40:08;38.35;;;14.48;;
49384;SDS011;36795;45.028;38.968;2023-02-25T00:43:04;35.92;;;14.40;;
49384;SDS011;36795;45.028;38.968;2023-02-25T00:45:50;35.58;;;14.13;;
49384;SDS011;36795;45.028;38.968;2023-02-25T00:48:36;36.28;;;14.50;;
49384;SDS011;36795;45.028;38.968;2023-02-25T00:51:23;34.25;;;14.38;;
49384;SDS011;36795;45.028;38.968;2023-02-25T00:54:10;35.97;;;13.15;;
49384;SDS011;36795;45.028;38.968;2023-02-25T00:56:56;32.90;;;13.02;;
49384;SDS011;36795;45.028;38.968;2023-02-25T00:59:42;29.80;;;12.05;;
49384;SDS011;36795;45.028;38.968;2023-02-25T01:02:30;33.75;;;13.13;;
49384;SDS011;36795;45.028;38.968;2023-02-25T01:05:17;34.58;;;13.73;;
49384;SDS011;36795;45.028;38.968;2023-02-25T01:08:03;31.15;;;13.25;;
49384;SDS011;36795;45.028;38.968;2023-02-25T01:10:50;34.00;;;14.70;;
49384;SDS011;36795;45.028;38.968;2023-02-25T01:13:37;31.73;;;13.30;;
49384;SDS011;36795;45.028;38.968;2023-02-25T01:16:24;38.55;;;14.87;;
49384;SDS011;36795;45.028;38.968;2023-02-25T01:19:12;38.88;;;14.48;;
49384;SDS011;36795;45.028;38.968;2023-02-25T01:21:59;31.58;;;14.02;;
49384;SDS011;36795;45.028;38.968;2023-02-25T01:24:45;36.10;;;14.85;;
49384;SDS011;36795;45.028;38.968;2023-02-25T01:27:31;42.47;;;15.13;;
49384;SDS011;36795;45.028;38.968;2023-02-25T01:30:17;35.58;;;15.25;;
49384;SDS011;36795;45.028;38.968;2023-02-25T01:33:04;31.80;;;15.20;;
49384;SDS011;36795;45.028;38.968;2023-02-25T01:35:50;35.88;;;13.80;;
49384;SDS011;36795;45.028;38.968;2023-02-25T01:38:37;33.67;;;13.50;;
49384;SDS011;36795;45.028;38.968;2023-02-25T01:41:23;35.22;;;14.00;;
49384;SDS011;36795;45.028;38.968;2023-02-25T01:44:20;31.83;;;13.10;;
49384;SDS011;36795;45.028;38.968;2023-02-25T01:47:16;31.23;;;13.07;;
49384;SDS011;36795;45.028;38.968;2023-02-25T01:50:04;39.83;;;13.85;;
49384;SDS011;36795;45.028;38.968;2023-02-25T01:52:50;34.50;;;13.85;;
49384;SDS011;36795;45.028;38.968;2023-02-25T01:55:38;32.05;;;13.07;;
49384;SDS011;36795;45.028;38.968;2023-02-25T01:58:26;32.75;;;13.52;;
49384;SDS011;36795;45.028;38.968;2023-02-25T02:01:14;32.70;;;14.25;;
49384;SDS011;36795;45.028;38.968;2023-02-25T02:04:04;38.92;;;13.98;;
49384;SDS011;36795;45.028;38.968;2023-02-25T02:06:54;31.52;;;12.82;;
49384;SDS011;36795;45.028;38.968;2023-02-25T02:09:41;36.30;;;13.57;;
49384;SDS011;36795;45.028;38.968;2023-02-25T02:12:41;37.53;;;14.70;;
49384;SDS011;36795;45.028;38.968;2023-02-25T02:15:28;34.17;;;15.38;;
49384;SDS011;36795;45.028;38.968;2023-02-25T02:18:16;35.40;;;15.18;;
49384;SDS011;36795;45.028;38.968;2023-02-25T02:23:56;33.83;;;14.25;;
49384;SDS011;36795;45.028;38.968;2023-02-25T02:26:51;34.13;;;13.70;;
49384;SDS011;36795;45.028;38.968;2023-02-25T02:32:45;36.53;;;13.90;;
49384;SDS011;36795;45.028;38.968;2023-02-25T02:35:37;35.42;;;14.98;;
49384;SDS011;36795;45.028;38.968;2023-02-25T02:44:22;34.55;;;13.40;;
49384;SDS011;36795;45.028;38.968;2023-02-25T02:47:20;31.40;;;13.20;;
49384;SDS011;36795;45.028;38.968;2023-02-25T02:50:09;34.65;;;13.62;;
49384;SDS011;36795;45.028;38.968;2023-02-25T02:52:58;34.08;;;13.45;;
49384;SDS011;36795;45.028;38.968;2023-02-25T02:55:48;71.87;;;17.87;;
49384;SDS011;36795;45.028;38.968;2023-02-25T02:58:42;31.15;;;12.52;;
49384;SDS011;36795;45.028;38.968;2023-02-25T03:01:31;32.92;;;12.43;;
49384;SDS011;36795;45.028;38.968;2023-02-25T03:04:21;33.38;;;12.35;;
49384;SDS011;36795;45.028;38.968;2023-02-25T03:07:09;31.12;;;13.13;;
49384;SDS011;36795;45.028;38.968;2023-02-25T03:09:57;31.70;;;12.85;;
49384;SDS011;36795;45.028;38.968;2023-02-25T03:12:49;29.52;;;11.43;;
49384;SDS011;36795;45.028;38.968;2023-02-25T03:15:36;32.42;;;12.35;;
49384;SDS011;36795;45.028;38.968;2023-02-25T03:18:38;32.95;;;13.00;;
49384;SDS011;36795;45.028;38.968;2023-02-25T03:21:28;31.50;;;12.00;;
49384;SDS011;36795;45.028;38.968;2023-02-25T03:24:17;35.60;;;12.77;;
49384;SDS011;36795;45.028;38.968;2023-02-25T03:35:55;30.23;;;12.52;;
49384;SDS011;36795;45.028;38.968;2023-02-25T03:38:43;35.92;;;14.73;;
49384;SDS011;36795;45.028;38.968;2023-02-25T03:41:33;32.17;;;12.70;;
49384;SDS011;36795;45.028;38.968;2023-02-25T03:44:30;29.55;;;11.05;;
49384;SDS011;36795;45.028;38.968;2023-02-25T03:47:18;28.27;;;10.10;;
49384;SDS011;36795;45.028;38.968;2023-02-25T03:50:11;27.73;;;11.15;;
49384;SDS011;36795;45.028;38.968;2023-02-25T03:53:00;26.50;;;10.20;;
49384;SDS011;36795;45.028;38.968;2023-02-25T03:55:47;29.25;;;11.30;;
49384;SDS011;36795;45.028;38.968;2023-02-25T03:58:35;29.95;;;10.95;;
49384;SDS011;36795;45.028;38.968;2023-02-25T04:01:25;28.75;;;11.12;;
49384;SDS011;36795;45.028;38.968;2023-02-25T04:04:12;27.87;;;9.93;;
49384;SDS011;36795;45.028;38.968;2023-02-25T04:06:58;28.85;;;9.57;;
49384;SDS011;36795;45.028;38.968;2023-02-25T04:09:45;26.62;;;9.23;;
49384;SDS011;36795;45.028;38.968;2023-02-25T04:12:31;28.38;;;9.75;;
49384;SDS011;36795;45.028;38.968;2023-02-25T04:15:18;29.77;;;9.73;;
49384;SDS011;36795;45.028;38.968;2023-02-25T04:18:04;27.67;;;10.30;;
49384;SDS011;36795;45.028;38.968;2023-02-25T04:20:51;29.63;;;9.43;;
49384;SDS011;36795;45.028;38.968;2023-02-25T04:23:37;27.65;;;10.13;;
49384;SDS011;36795;45.028;38.968;2023-02-25T04:26:23;25.45;;;9.00;;
49384;SDS011;36795;45.028;38.968;2023-02-25T04:29:09;28.90;;;9.52;;
49384;SDS011;36795;45.028;38.968;2023-02-25T04:31:56;24.87;;;9.52;;
49384;SDS011;36795;45.028;38.968;2023-02-25T04:34:42;23.73;;;8.30;;
49384;SDS011;36795;45.028;38.968;2023-02-25T04:37:29;24.77;;;8.52;;
49384;SDS011;36795;45.028;38.968;2023-02-25T04:40:16;26.42;;;9.98;;
49384;SDS011;36795;45.028;38.968;2023-02-25T04:43:03;25.05;;;8.60;;
49384;SDS011;36795;45.028;38.968;2023-02-25T04:45:49;29.45;;;9.10;;
49384;SDS011;36795;45.028;38.968;2023-02-25T04:48:39;23.85;;;8.90;;
49384;SDS011;36795;45.028;38.968;2023-02-25T04:51:25;26.73;;;8.90;;
49384;SDS011;36795;45.028;38.968;2023-02-25T04:54:12;26.05;;;9.48;;
49384;SDS011;36795;45.028;38.968;2023-02-25T04:56:58;25.60;;;8.70;;
49384;SDS011;36795;45.028;38.968;2023-02-25T04:59:44;25.67;;;8.48;;
49384;SDS011;36795;45.028;38.968;2023-02-25T05:02:31;29.98;;;8.90;;
49384;SDS011;36795;45.028;38.968;2023-02-25T05:05:18;30.45;;;9.50;;
49384;SDS011;36795;45.028;38.968;2023-02-25T05:08:03;25.50;;;8.88;;
49384;SDS011;36795;45.028;38.968;2023-02-25T05:10:50;28.62;;;8.63;;
49384;SDS011;36795;45.028;38.968;2023-02-25T05:13:36;31.70;;;8.05;;
49384;SDS011;36795;45.028;38.968;2023-02-25T05:16:23;25.10;;;8.07;;
49384;SDS011;36795;45.028;38.968;2023-02-25T05:19:13;25.92;;;7.87;;
49384;SDS011;36795;45.028;38.968;2023-02-25T05:22:00;22.87;;;7.35;;
49384;SDS011;36795;45.028;38.968;2023-02-25T05:24:46;26.52;;;7.40;;
49384;SDS011;36795;45.028;38.968;2023-02-25T05:27:33;27.52;;;7.65;;
49384;SDS011;36795;45.028;38.968;2023-02-25T05:30:19;26.98;;;7.62;;
49384;SDS011;36795;45.028;38.968;2023-02-25T05:33:06;31.23;;;11.40;;
49384;SDS011;36795;45.028;38.968;2023-02-25T05:35:52;29.45;;;7.85;;
49384;SDS011;36795;45.028;38.968;2023-02-25T05:38:38;35.80;;;9.27;;
49384;SDS011;36795;45.028;38.968;2023-02-25T05:41:24;25.85;;;8.48;;
49384;SDS011;36795;45.028;38.968;2023-02-25T05:44:11;22.70;;;7.50;;
49384;SDS011;36795;45.028;38.968;2023-02-25T05:46:57;24.83;;;7.43;;
49384;SDS011;36795;45.028;38.968;2023-02-25T05:49:43;24.90;;;7.87;;
49384;SDS011;36795;45.028;38.968;2023-02-25T05:52:29;25.42;;;7.72;;
49384;SDS011;36795;45.028;38.968;2023-02-25T05:55:16;27.25;;;7.80;;
49384;SDS011;36795;45.028;38.968;2023-02-25T05:58:02;27.33;;;8.00;;
49384;SDS011;36795;45.028;38.968;2023-02-25T06:00:49;29.33;;;11.30;;
49384;SDS011;36795;45.028;38.968;2023-02-25T06:03:35;40.72;;;11.20;;
49384;SDS011;36795;45.028;38.968;2023-02-25T06:06:21;28.70;;;10.38;;
49384;SDS011;36795;45.028;38.968;2023-02-25T06:09:08;26.55;;;11.00;;
49384;SDS011;36795;45.028;38.968;2023-02-25T06:11:54;27.02;;;9.43;;
49384;SDS011;36795;45.028;38.968;2023-02-25T06:14:41;34.45;;;11.10;;
49384;SDS011;36795;45.028;38.968;2023-02-25T06:17:27;33.33;;;9.93;;
49384;SDS011;36795;45.028;38.968;2023-02-25T06:20:15;29.30;;;9.35;;
49384;SDS011;36795;45.028;38.968;2023-02-25T06:23:01;30.67;;;10.73;;
49384;SDS011;36795;45.028;38.968;2023-02-25T06:25:49;29.23;;;10.02;;
49384;SDS011;36795;45.028;38.968;2023-02-25T06:28:35;31.20;;;10.93;;
49384;SDS011;36795;45.028;38.968;2023-02-25T06:31:22;28.45;;;8.43;;
49384;SDS011;36795;45.028;38.968;2023-02-25T06:34:08;30.27;;;8.77;;
49384;SDS011;36795;45.028;38.968;2023-02-25T06:36:55;32.35;;;9.60;;
49384;SDS011;36795;45.028;38.968;2023-02-25T06:39:41;33.83;;;9.75;;
49384;SDS011;36795;45.028;38.968;2023-02-25T06:42:27;35.90;;;9.45;;
49384;SDS011;36795;45.028;38.968;2023-02-25T06:45:14;35.15;;;9.80;;
49384;SDS011;36795;45.028;38.968;2023-02-25T06:48:01;41.78;;;9.05;;
49384;SDS011;36795;45.028;38.968;2023-02-25T06:50:47;28.20;;;7.78;;
49384;SDS011;36795;45.028;38.968;2023-02-25T06:53:38;32.20;;;8.55;;
49384;SDS011;36795;45.028;38.968;2023-02-25T06:56:25;49.00;;;10.23;;
49384;SDS011;36795;45.028;38.968;2023-02-25T06:59:13;41.28;;;9.18;;
49384;SDS011;36795;45.028;38.968;2023-02-25T07:01:59;93.07;;;12.50;;
49384;SDS011;36795;45.028;38.968;2023-02-25T07:04:45;49.15;;;11.15;;
49384;SDS011;36795;45.028;38.968;2023-02-25T07:07:31;33.17;;;8.52;;
49384;SDS011;36795;45.028;38.968;2023-02-25T07:10:18;38.22;;;9.07;;
49384;SDS011;36795;45.028;38.968;2023-02-25T07:13:04;30.23;;;8.25;;
49384;SDS011;36795;45.028;38.968;2023-02-25T07:15:51;28.87;;;8.85;;
49384;SDS011;36795;45.028;38.968;2023-02-25T07:18:37;51.47;;;11.12;;
49384;SDS011;36795;45.028;38.968;2023-02-25T07:21:23;25.70;;;9.00;;
49384;SDS011;36795;45.028;38.968;2023-02-25T07:24:13;37.78;;;9.38;;
49384;SDS011;36795;45.028;38.968;2023-02-25T07:26:59;40.30;;;12.10;;
49384;SDS011;36795;45.028;38.968;2023-02-25T07:29:45;27.75;;;8.52;;
49384;SDS011;36795;45.028;38.968;2023-02-25T07:32:32;33.63;;;9.80;;
49384;SDS011;36795;45.028;38.968;2023-02-25T07:35:18;27.92;;;8.60;;
49384;SDS011;36795;45.028;38.968;2023-02-25T07:38:05;30.80;;;8.13;;
49384;SDS011;36795;45.028;38.968;2023-02-25T07:40:51;27.02;;;7.50;;
49384;SDS011;36795;45.028;38.968;2023-02-25T07:43:37;26.00;;;7.70;;
49384;SDS011;36795;45.028;38.968;2023-02-25T07:46:23;25.75;;;6.72;;
49384;SDS011;36795;45.028;38.968;2023-02-25T07:49:10;21.23;;;5.68;;
49384;SDS011;36795;45.028;38.968;2023-02-25T07:51:56;24.45;;;6.55;;
49384;SDS011;36795;45.028;38.968;2023-02-25T07:54:43;27.25;;;5.82;;
49384;SDS011;36795;45.028;38.968;2023-02-25T07:57:29;21.62;;;6.47;;
49384;SDS011;36795;45.028;38.968;2023-02-25T08:00:15;21.95;;;5.15;;
49384;SDS011;36795;45.028;38.968;2023-02-25T08:03:02;22.08;;;5.12;;
49384;SDS011;36795;45.028;38.968;2023-02-25T08:05:49;22.13;;;5.85;;
49384;SDS011;36795;45.028;38.968;2023-02-25T08:08:36;22.60;;;5.50;;
49384;SDS011;36795;45.028;38.968;2023-02-25T08:11:23;21.20;;;5.80;;
49384;SDS011;36795;45.028;38.968;2023-02-25T08:14:10;17.77;;;4.75;;
49384;SDS011;36795;45.028;38.968;2023-02-25T08:16:56;19.17;;;4.53;;
49384;SDS011;36795;45.028;38.968;2023-02-25T08:19:42;16.37;;;3.87;;
49384;SDS011;36795;45.028;38.968;2023-02-25T08:22:28;13.75;;;3.42;;
49384;SDS011;36795;45.028;38.968;2023-02-25T08:25:15;14.23;;;3.83;;
49384;SDS011;36795;45.028;38.968;2023-02-25T08:28:01;13.27;;;3.85;;
49384;SDS011;36795;45.028;38.968;2023-02-25T08:30:49;12.15;;;3.40;;
49384;SDS011;36795;45.028;38.968;2023-02-25T08:33:35;18.85;;;3.80;;
49384;SDS011;36795;45.028;38.968;2023-02-25T08:36:22;21.75;;;4.30;;
49384;SDS011;36795;45.028;38.968;2023-02-25T08:39:09;18.00;;;3.30;;
49384;SDS011;36795;45.028;38.968;2023-02-25T08:41:56;17.10;;;3.37;;
49384;SDS011;36795;45.028;38.968;2023-02-25T08:44:42;25.00;;;4.15;;
49384;SDS011;36795;45.028;38.968;2023-02-25T08:47:28;12.32;;;2.90;;
49384;SDS011;36795;45.028;38.968;2023-02-25T08:50:14;15.57;;;3.20;;
49384;SDS011;36795;45.028;38.968;2023-02-25T08:53:01;16.95;;;3.33;;
49384;SDS011;36795;45.028;38.968;2023-02-25T08:55:47;20.52;;;3.78;;
49384;SDS011;36795;45.028;38.968;2023-02-25T08:58:35;22.00;;;3.25;;
49384;SDS011;36795;45.028;38.968;2023-02-25T09:01:21;15.88;;;3.22;;
49384;SDS011;36795;45.028;38.968;2023-02-25T09:04:08;12.75;;;2.37;;
49384;SDS011;36795;45.028;38.968;2023-02-25T09:06:54;21.55;;;2.80;;
49384;SDS011;36795;45.028;38.968;2023-02-25T09:09:42;18.25;;;3.65;;
49384;SDS011;36795;45.028;38.968;2023-02-25T09:12:29;40.47;;;4.43;;
49384;SDS011;36795;45.028;38.968;2023-02-25T09:15:15;29.65;;;4.00;;
49384;SDS011;36795;45.028;38.968;2023-02-25T09:18:01;21.58;;;3.22;;
49384;SDS011;36795;45.028;38.968;2023-02-25T09:20:48;41.37;;;5.70;;
49384;SDS011;36795;45.028;38.968;2023-02-25T09:23:34;24.77;;;3.25;;
49384;SDS011;36795;45.028;38.968;2023-02-25T09:26:21;31.77;;;3.90;;
49384;SDS011;36795;45.028;38.968;2023-02-25T09:29:07;15.38;;;3.37;;
49384;SDS011;36795;45.028;38.968;2023-02-25T09:31:54;33.58;;;4.15;;
49384;SDS011;36795;45.028;38.968;2023-02-25T09:34:40;21.62;;;2.83;;
49384;SDS011;36795;45.028;38.968;2023-02-25T09:37:26;26.50;;;3.58;;
49384;SDS011;36795;45.028;38.968;2023-02-25T09:40:14;15.90;;;2.65;;
49384;SDS011;36795;45.028;38.968;2023-02-25T09:46:00;16.52;;;3.92;;
49384;SDS011;36795;45.028;38.968;2023-02-25T09:48:53;13.13;;;2.30;;
49384;SDS011;36795;45.028;38.968;2023-02-25T09:51:42;21.27;;;5.62;;
49384;SDS011;36795;45.028;38.968;2023-02-25T09:54:31;18.92;;;2.50;;
49384;SDS011;36795;45.028;38.968;2023-02-25T09:57:18;17.80;;;2.92;;
49384;SDS011;36795;45.028;38.968;2023-02-25T10:00:15;17.85;;;2.85;;
49384;SDS011;36795;45.028;38.968;2023-02-25T10:03:10;13.07;;;2.55;;
49384;SDS011;36795;45.028;38.968;2023-02-25T10:06:02;20.25;;;3.05;;
49384;SDS011;36795;45.028;38.968;2023-02-25T10:21:03;13.40;;;2.65;;
49384;SDS011;36795;45.028;38.968;2023-02-25T10:23:57;13.52;;;2.65;;
49384;SDS011;36795;45.028;38.968;2023-02-25T10:26:48;15.65;;;2.70;;
49384;SDS011;36795;45.028;38.968;2023-02-25T10:29:44;22.08;;;3.15;;
49384;SDS011;36795;45.028;38.968;2023-02-25T10:32:34;11.52;;;2.70;;
49384;SDS011;36795;45.028;38.968;2023-02-25T10:35:24;15.13;;;3.37;;
49384;SDS011;36795;45.028;38.968;2023-02-25T10:38:13;11.77;;;2.60;;
49384;SDS011;36795;45.028;38.968;2023-02-25T10:40:59;15.95;;;2.72;;
49384;SDS011;36795;45.028;38.968;2023-02-25T10:43:45;15.70;;;3.17;;
49384;SDS011;36795;45.028;38.968;2023-02-25T10:46:32;15.85;;;2.85;;
49384;SDS011;36795;45.028;38.968;2023-02-25T10:49:23;19.42;;;2.97;;
49384;SDS011;36795;45.028;38.968;2023-02-25T10:52:14;13.88;;;2.70;;
49384;SDS011;36795;45.028;38.968;2023-02-25T10:55:01;17.52;;;3.22;;
49384;SDS011;36795;45.028;38.968;2023-02-25T10:57:47;10.55;;;2.45;;
49384;SDS011;36795;45.028;38.968;2023-02-25T11:00:35;15.57;;;2.67;;
49384;SDS011;36795;45.028;38.968;2023-02-25T11:03:22;13.32;;;2.72;;
49384;SDS011;36795;45.028;38.968;2023-02-25T11:06:11;15.98;;;3.08;;
49384;SDS011;36795;45.028;38.968;2023-02-25T11:09:00;16.05;;;3.05;;
49384;SDS011;36795;45.028;38.968;2023-02-25T11:11:51;9.85;;;2.42;;
49384;SDS011;36795;45.028;38.968;2023-02-25T11:14:39;17.50;;;2.70;;
49384;SDS011;36795;45.028;38.968;2023-02-25T11:17:25;20.55;;;3.22;;
49384;SDS011;36795;45.028;38.968;2023-02-25T11:20:22;13.80;;;2.72;;
49384;SDS011;36795;45.028;38.968;2023-02-25T11:23:12;18.42;;;3.08;;
49384;SDS011;36795;45.028;38.968;2023-02-25T11:26:04;18.30;;;3.00;;
49384;SDS011;36795;45.028;38.968;2023-02-25T11:28:52;16.67;;;3.08;;
49384;SDS011;36795;45.028;38.968;2023-02-25T11:31:38;13.95;;;2.12;;
49384;SDS011;36795;45.028;38.968;2023-02-25T11:34:27;20.77;;;2.78;;
49384;SDS011;36795;45.028;38.968;2023-02-25T11:40:40;12.27;;;2.70;;
49384;SDS011;36795;45.028;38.968;2023-02-25T11:43:48;17.45;;;3.03;;
49384;SDS011;36795;45.028;38.968;2023-02-25T11:46:34;10.27;;;2.70;;
49384;SDS011;36795;45.028;38.968;2023-02-25T11:49:29;15.93;;;2.97;;
49384;SDS011;36795;45.028;38.968;2023-02-25T12:01:20;14.95;;;3.12;;
49384;SDS011;36795;45.028;38.968;2023-02-25T12:07:28;12.20;;;2.90;;
49384;SDS011;36795;45.028;38.968;2023-02-25T12:22:16;12.35;;;2.62;;
49384;SDS011;36795;45.028;38.968;2023-02-25T12:28:07;10.68;;;2.50;;
49384;SDS011;36795;45.028;38.968;2023-02-25T12:30:57;16.70;;;3.12;;
49384;SDS011;36795;45.028;38.968;2023-02-25T12:33:57;17.50;;;2.92;;
49384;SDS011;36795;45.028;38.968;2023-02-25T12:36:54;14.98;;;3.03;;
49384;SDS011;36795;45.028;38.968;2023-02-25T12:42:44;12.05;;;2.53;;
49384;SDS011;36795;45.028;38.968;2023-02-25T12:45:45;15.13;;;2.28;;
49384;SDS011;36795;45.028;38.968;2023-02-25T12:55:09;13.10;;;2.95;;
49384;SDS011;36795;45.028;38.968;2023-02-25T13:03:31;12.20;;;2.50;;
49384;SDS011;36795;45.028;38.968;2023-02-25T13:09:20;19.35;;;2.95;;
49384;SDS011;36795;45.028;38.968;2023-02-25T13:12:27;17.37;;;2.80;;
49384;SDS011;36795;45.028;38.968;2023-02-25T13:23:53;14.73;;;2.80;;
49384;SDS011;36795;45.028;38.968;2023-02-25T13:29:54;12.65;;;3.00;;
49384;SDS011;36795;45.028;38.968;2023-02-25T13:38:22;10.50;;;2.20;;
49384;SDS011;36795;45.028;38.968;2023-02-25T13:58:40;13.35;;;2.90;;
49384;SDS011;36795;45.028;38.968;2023-02-25T14:01:36;13.98;;;2.90;;
49384;SDS011;36795;45.028;38.968;2023-02-25T14:04:29;17.62;;;3.58;;
49384;SDS011;36795;45.028;38.968;2023-02-25T14:07:42;15.60;;;3.90;;
49384;SDS011;36795;45.028;38.968;2023-02-25T14:10:37;14.48;;;2.95;;
49384;SDS011;36795;45.028;38.968;2023-02-25T14:19:46;20.67;;;2.87;;
49384;SDS011;36795;45.028;38.968;2023-02-25T14:34:36;14.85;;;3.00;;
49384;SDS011;36795;45.028;38.968;2023-02-25T14:40:28;10.98;;;2.65;;
49384;SDS011;36795;45.028;38.968;2023-02-25T14:43:27;18.33;;;3.30;;
49384;SDS011;36795;45.028;38.968;2023-02-25T14:46:28;12.88;;;3.05;;
49384;SDS011;36795;45.028;38.968;2023-02-25T15:07:13;14.15;;;3.10;;
49384;SDS011;36795;45.028;38.968;2023-02-25T15:10:11;10.52;;;2.78;;
49384;SDS011;36795;45.028;38.968;2023-02-25T15:22:10;12.52;;;2.87;;
49384;SDS011;36795;45.028;38.968;2023-02-25T15:28:03;10.80;;;2.85;;
49384;SDS011;36795;45.028;38.968;2023-02-25T15:31:09;14.63;;;3.42;;
49384;SDS011;36795;45.028;38.968;2023-02-25T15:37:18;17.35;;;2.85;;
49384;SDS011;36795;45.028;38.968;2023-02-25T15:43:46;13.77;;;3.05;;
49384;SDS011;36795;45.028;38.968;2023-02-25T15:51:56;10.23;;;2.50;;
49384;SDS011;36795;45.028;38.968;2023-02-25T15:54:46;13.57;;;2.75;;
49384;SDS011;36795;45.028;38.968;2023-02-25T15:57:33;16.95;;;3.20;;
49384;SDS011;36795;45.028;38.968;2023-02-25T16:06:40;12.75;;;2.92;;
49384;SDS011;36795;45.028;38.968;2023-02-25T16:09:26;15.70;;;3.65;;
49384;SDS011;36795;45.028;38.968;2023-02-25T16:12:12;16.08;;;2.90;;
49384;SDS011;36795;45.028;38.968;2023-02-25T16:14:59;19.30;;;3.62;;
49384;SDS011;36795;45.028;38.968;2023-02-25T16:17:45;14.30;;;3.03;;
49384;SDS011;36795;45.028;38.968;2023-02-25T16:20:36;18.90;;;3.60;;
49384;SDS011;36795;45.028;38.968;2023-02-25T16:23:30;22.05;;;4.47;;
49384;SDS011;36795;45.028;38.968;2023-02-25T16:29:11;14.82;;;3.45;;
49384;SDS011;36795;45.028;38.968;2023-02-25T16:32:03;14.15;;;2.70;;
49384;SDS011;36795;45.028;38.968;2023-02-25T16:37:59;17.15;;;3.22;;
49384;SDS011;36795;45.028;38.968;2023-02-25T16:40:47;21.10;;;3.80;;
49384;SDS011;36795;45.028;38.968;2023-02-25T16:43:37;16.17;;;3.20;;
49384;SDS011;36795;45.028;38.968;2023-02-25T16:46:28;14.60;;;2.53;;
49384;SDS011;36795;45.028;38.968;2023-02-25T16:49:19;21.27;;;5.18;;
49384;SDS011;36795;45.028;38.968;2023-02-25T16:52:11;13.55;;;3.17;;
49384;SDS011;36795;45.028;38.968;2023-02-25T16:55:02;18.42;;;3.30;;
49384;SDS011;36795;45.028;38.968;2023-02-25T16:58:18;18.80;;;2.97;;
49384;SDS011;36795;45.028;38.968;2023-02-25T17:01:10;16.98;;;3.20;;
49384;SDS011;36795;45.028;38.968;2023-02-25T17:04:13;18.00;;;3.17;;
49384;SDS011;36795;45.028;38.968;2023-02-25T17:07:11;18.00;;;4.18;;
49384;SDS011;36795;45.028;38.968;2023-02-25T17:10:00;13.68;;;3.40;;
49384;SDS011;36795;45.028;38.968;2023-02-25T17:12:47;16.17;;;3.05;;
49384;SDS011;36795;45.028;38.968;2023-02-25T17:15:34;16.65;;;3.28;;
49384;SDS011;36795;45.028;38.968;2023-02-25T17:18:23;12.75;;;3.03;;
49384;SDS011;36795;45.028;38.968;2023-02-25T17:21:22;18.45;;;3.53;;
49384;SDS011;36795;45.028;38.968;2023-02-25T17:24:13;13.95;;;3.10;;
49384;SDS011;36795;45.028;38.968;2023-02-25T17:27:01;17.75;;;2.90;;
49384;SDS011;36795;45.028;38.968;2023-02-25T17:29:47;19.25;;;4.30;;
49384;SDS011;36795;45.028;38.968;2023-02-25T17:32:34;20.73;;;3.80;;
49384;SDS011;36795;45.028;38.968;2023-02-25T17:35:43;14.50;;;3.65;;
49384;SDS011;36795;45.028;38.968;2023-02-25T17:38:31;21.00;;;3.78;;
49384;SDS011;36795;45.028;38.968;2023-02-25T17:41:19;20.23;;;3.58;;
49384;SDS011;36795;45.028;38.968;2023-02-25T17:44:08;21.45;;;4.03;;
49384;SDS011;36795;45.028;38.968;2023-02-25T17:46:55;15.20;;;3.65;;
49384;SDS011;36795;45.028;38.968;2023-02-25T17:49:41;13.32;;;3.12;;
49384;SDS011;36795;45.028;38.968;2023-02-25T17:52:31;17.00;;;3.22;;
49384;SDS011;36795;45.028;38.968;2023-02-25T17:55:24;18.05;;;3.62;;
49384;SDS011;36795;45.028;38.968;2023-02-25T17:58:19;19.08;;;3.62;;
49384;SDS011;36795;45.028;38.968;2023-02-25T18:01:06;17.17;;;3.25;;
49384;SDS011;36795;45.028;38.968;2023-02-25T18:03:54;25.45;;;4.05;;
49384;SDS011;36795;45.028;38.968;2023-02-25T18:06:41;20.75;;;3.58;;
49384;SDS011;36795;45.028;38.968;2023-02-25T18:09:35;23.85;;;3.45;;
49384;SDS011;36795;45.028;38.968;2023-02-25T18:15:21;18.65;;;3.35;;
49384;SDS011;36795;45.028;38.968;2023-02-25T18:18:13;27.17;;;4.12;;
49384;SDS011;36795;45.028;38.968;2023-02-25T18:21:03;17.50;;;3.22;;
49384;SDS011;36795;45.028;38.968;2023-02-25T18:23:49;16.65;;;3.00;;
49384;SDS011;36795;45.028;38.968;2023-02-25T18:26:35;18.62;;;3.30;;
49384;SDS011;36795;45.028;38.968;2023-02-25T18:29:22;18.20;;;3.42;;
49384;SDS011;36795;45.028;38.968;2023-02-25T18:32:08;18.12;;;3.40;;
49384;SDS011;36795;45.028;38.968;2023-02-25T18:34:54;17.65;;;3.70;;
49384;SDS011;36795;45.028;38.968;2023-02-25T18:37:42;25.23;;;4.45;;
49384;SDS011;36795;45.028;38.968;2023-02-25T18:40:29;16.40;;;2.95;;
49384;SDS011;36795;45.028;38.968;2023-02-25T18:43:17;12.77;;;2.83;;
49384;SDS011;36795;45.028;38.968;2023-02-25T18:46:03;11.70;;;2.83;;
49384;SDS011;36795;45.028;38.968;2023-02-25T18:48:49;11.52;;;2.65;;
49384;SDS011;36795;45.028;38.968;2023-02-25T18:51:35;14.68;;;3.37;;
49384;SDS011;36795;45.028;38.968;2023-02-25T18:54:23;14.73;;;2.78;;
49384;SDS011;36795;45.028;38.968;2023-02-25T18:57:22;12.73;;;2.70;;
49384;SDS011;36795;45.028;38.968;2023-02-25T19:00:09;13.35;;;2.42;;
49384;SDS011;36795;45.028;38.968;2023-02-25T19:02:57;10.40;;;2.53;;
49384;SDS011;36795;45.028;38.968;2023-02-25T19:05:44;12.68;;;3.22;;
49384;SDS011;36795;45.028;38.968;2023-02-25T19:08:30;17.83;;;2.92;;
49384;SDS011;36795;45.028;38.968;2023-02-25T19:11:18;17.15;;;3.05;;
49384;SDS011;36795;45.028;38.968;2023-02-25T19:14:05;13.77;;;2.72;;
49384;SDS011;36795;45.028;38.968;2023-02-25T19:16:52;24.00;;;5.12;;
49384;SDS011;36795;45.028;38.968;2023-02-25T19:19:38;9.00;;;2.17;;
49384;SDS011;36795;45.028;38.968;2023-02-25T19:22:24;14.32;;;2.72;;
49384;SDS011;36795;45.028;38.968;2023-02-25T19:25:14;14.48;;;2.78;;
49384;SDS011;36795;45.028;38.968;2023-02-25T19:28:03;13.93;;;2.37;;
49384;SDS011;36795;45.028;38.968;2023-02-25T19:30:50;22.58;;;4.18;;
49384;SDS011;36795;45.028;38.968;2023-02-25T19:33:36;18.52;;;3.05;;
49384;SDS011;36795;45.028;38.968;2023-02-25T19:36:22;20.90;;;3.15;;
49384;SDS011;36795;45.028;38.968;2023-02-25T19:39:09;13.35;;;2.80;;
49384;SDS011;36795;45.028;38.968;2023-02-25T19:41:54;15.95;;;3.25;;